createdAt,value
2023-04-09T00:01:19.745Z,90.02
2023-04-09T00:06:19.672Z,90.36
2023-04-09T00:11:19.605Z,90.82
2023-04-09T00:16:19.562Z,91.13
2023-04-09T00:21:19.475Z,91.38
2023-04-09T00:26:19.397Z,91.58
2023-04-09T00:31:20.766Z,91.17
2023-04-09T00:36:19.262Z,91.38
2023-04-09T00:41:19.224Z,91.38
2023-04-09T00:46:19.255Z,91.58
2023-04-09T00:51:19.081Z,92.10
2023-04-09T00:56:19.013Z,91.69
2023-04-09T01:01:18.975Z,91.79
2023-04-09T01:06:18.863Z,91.79
2023-04-09T01:11:18.796Z,91.54
2023-04-09T01:16:18.759Z,90.93
2023-04-09T01:21:18.657Z,91.03
2023-04-09T01:26:18.578Z,90.61
2023-04-09T01:31:18.543Z,90.41
2023-04-09T01:36:18.447Z,90.51
2023-04-09T01:41:18.384Z,90.30
2023-04-09T01:46:18.361Z,91.13
2023-04-09T01:51:18.251Z,91.27
2023-04-09T01:56:18.171Z,91.38
2023-04-09T02:01:18.148Z,91.58
2023-04-09T02:06:18.046Z,91.79
2023-04-09T02:11:17.976Z,91.79
2023-04-09T02:16:18.056Z,92.15
2023-04-09T02:21:17.839Z,92.15
2023-04-09T02:26:17.780Z,92.91
2023-04-09T02:31:17.741Z,93.64
2023-04-09T02:36:17.656Z,93.89
2023-04-09T02:41:17.574Z,94.34
2023-04-09T02:46:17.546Z,94.55
2023-04-09T02:51:17.457Z,94.45
2023-04-09T02:56:17.364Z,94.49
2023-04-09T03:01:17.348Z,94.80
2023-04-09T03:06:17.233Z,94.84
2023-04-09T03:11:17.181Z,94.68
2023-04-09T03:16:17.187Z,94.68
2023-04-09T03:21:17.055Z,95.25
2023-04-09T03:26:16.978Z,95.35
2023-04-09T03:31:16.967Z,95.66
2023-04-09T03:36:16.875Z,96.02
2023-04-09T03:41:16.790Z,96.53
2023-04-09T03:46:16.742Z,96.02
2023-04-09T03:51:16.652Z,95.33
2023-04-09T03:56:16.581Z,95.06
2023-04-09T04:01:16.536Z,94.86
2023-04-09T04:06:16.454Z,95.06
2023-04-09T04:11:16.388Z,96.93
2023-04-09T04:16:16.369Z,97.45
2023-04-09T04:21:16.242Z,96.52
2023-04-09T04:26:16.177Z,97.35
2023-04-09T04:31:16.140Z,98.60
2023-04-09T04:36:16.050Z,98.29
2023-04-09T04:41:15.984Z,96.93
2023-04-09T04:46:15.972Z,96.41
2023-04-09T04:51:15.850Z,96.00
2023-04-09T04:56:15.773Z,96.47
2023-04-09T05:01:15.776Z,94.40
2023-04-09T05:06:15.644Z,93.36
2023-04-09T05:11:15.585Z,93.01
2023-04-09T05:16:15.525Z,92.30
2023-04-09T05:21:15.456Z,90.39
2023-04-09T05:26:15.404Z,89.00
2023-04-09T05:31:15.367Z,87.82
2023-04-09T05:36:15.256Z,86.43
2023-04-09T05:41:15.191Z,85.83
2023-04-09T05:46:15.140Z,84.17
2023-04-09T05:51:15.182Z,82.85
2023-04-09T05:56:14.997Z,81.33
2023-04-09T06:01:14.921Z,79.30
2023-04-09T06:06:14.864Z,77.89
2023-04-09T06:11:14.802Z,76.48
2023-04-09T06:16:14.792Z,76.48
2023-04-09T06:21:14.667Z,78.50
2023-04-09T06:26:14.600Z,78.36
2023-04-09T06:31:14.620Z,76.48
2023-04-09T06:36:14.490Z,72.95
2023-04-09T06:41:14.410Z,70.56
2023-04-09T06:46:14.343Z,68.12
2023-04-09T06:51:14.250Z,65.98
2023-04-09T06:56:14.202Z,63.31
2023-04-09T07:01:14.121Z,60.63
2023-04-09T07:06:14.064Z,57.42
2023-04-09T07:11:13.984Z,56.61
2023-04-09T07:16:13.959Z,56.63
2023-04-09T07:21:13.852Z,52.66
2023-04-09T07:26:13.797Z,53.34
2023-04-09T07:31:13.764Z,50.72
2023-04-09T07:36:13.774Z,50.84
2023-04-09T07:41:13.597Z,51.12
2023-04-09T07:46:13.536Z,52.94
2023-04-09T07:51:13.461Z,53.49
2023-04-09T07:56:13.402Z,50.09
2023-04-09T08:01:13.333Z,51.30
2023-04-09T08:06:13.266Z,49.29
2023-04-09T08:11:13.188Z,49.79
2023-04-09T08:16:13.167Z,49.31
2023-04-09T08:21:13.054Z,53.64
2023-04-09T08:26:13.009Z,54.00
2023-04-09T08:31:12.920Z,56.13
2023-04-09T08:36:12.900Z,57.65
2023-04-09T08:41:14.095Z,57.67
2023-04-09T08:46:12.844Z,59.15
2023-04-09T08:51:12.646Z,57.32
2023-04-09T08:56:12.586Z,57.01
2023-04-09T09:01:13.623Z,54.28
2023-04-09T09:06:12.451Z,53.07
2023-04-09T09:11:12.385Z,50.39
2023-04-09T09:16:12.366Z,53.85
2023-04-09T09:21:12.243Z,53.29
2023-04-09T09:26:12.197Z,54.71
2023-04-09T09:31:12.182Z,57.07
2023-04-09T09:36:12.217Z,53.24
2023-04-09T09:41:11.986Z,50.44
2023-04-09T09:46:12.008Z,50.01
2023-04-09T09:51:11.859Z,48.49
2023-04-09T09:56:11.810Z,46.67
2023-04-09T10:01:11.743Z,46.38
2023-04-09T10:06:11.669Z,44.92
2023-04-09T10:11:11.585Z,46.03
2023-04-09T10:16:11.614Z,44.48
2023-04-09T10:21:11.442Z,46.13
2023-04-09T10:26:11.380Z,46.80
2023-04-09T10:31:11.354Z,46.83
2023-04-09T10:36:11.291Z,46.79
2023-04-09T10:41:11.185Z,45.10
2023-04-09T10:46:11.141Z,45.83
2023-04-09T10:51:11.056Z,48.49
2023-04-09T10:56:10.996Z,48.94
2023-04-09T11:01:10.919Z,50.85
2023-04-09T11:06:10.860Z,47.17
2023-04-09T11:11:10.784Z,46.00
2023-04-09T11:16:10.777Z,46.49
2023-04-09T11:21:10.656Z,45.10
2023-04-09T11:26:10.597Z,46.03
2023-04-09T11:31:10.640Z,46.81
2023-04-09T11:36:10.558Z,45.93
2023-04-09T11:41:10.376Z,47.60
2023-04-09T11:46:10.333Z,47.14
2023-04-09T11:51:10.255Z,49.53
2023-04-09T11:56:10.203Z,50.72
2023-04-09T12:01:10.110Z,51.14
2023-04-09T12:06:10.057Z,49.07
2023-04-09T12:11:09.977Z,50.23
2023-04-09T12:16:09.935Z,49.75
2023-04-09T12:21:09.846Z,51.42
2023-04-09T12:26:09.791Z,49.63
2023-04-09T12:31:09.713Z,50.56
2023-04-09T12:36:09.682Z,50.20
2023-04-09T12:41:09.596Z,53.72
2023-04-09T12:46:09.598Z,54.35
2023-04-09T12:51:09.442Z,53.32
2023-04-09T12:56:09.391Z,53.41
2023-04-09T13:01:09.406Z,51.79
2023-04-09T13:06:09.253Z,53.21
2023-04-09T13:11:09.173Z,52.48
2023-04-09T13:16:09.131Z,54.91
2023-04-09T13:21:09.034Z,55.73
2023-04-09T13:26:08.983Z,55.67
2023-04-09T13:31:08.950Z,55.85
2023-04-09T13:36:08.867Z,55.04
2023-04-09T13:41:08.780Z,54.76
2023-04-09T13:46:08.733Z,53.80
2023-04-09T13:51:08.645Z,54.81
2023-04-09T13:56:08.578Z,54.61
2023-04-09T14:01:08.554Z,54.94
2023-04-09T14:06:08.465Z,55.07
2023-04-09T14:11:08.370Z,55.27
2023-04-09T14:16:08.324Z,55.17
2023-04-09T14:21:10.129Z,55.95
2023-04-09T14:26:08.184Z,55.24
2023-04-09T14:31:08.189Z,55.42
2023-04-09T14:36:08.093Z,54.10
2023-04-09T14:41:07.980Z,53.29
2023-04-09T14:46:07.970Z,54.54
2023-04-09T14:51:07.862Z,54.74
2023-04-09T14:56:07.795Z,55.24
2023-04-09T15:01:07.755Z,55.17
2023-04-09T15:06:07.676Z,55.55
2023-04-09T15:11:07.604Z,54.02
2023-04-09T15:16:07.563Z,60.02
2023-04-09T15:21:07.477Z,53.29
2023-04-09T15:26:07.402Z,52.30
2023-04-09T15:31:07.353Z,53.01
2023-04-09T15:36:07.293Z,51.51
2023-04-09T15:41:07.432Z,52.42
2023-04-09T15:46:07.200Z,52.53
2023-04-09T15:51:07.100Z,52.22
2023-04-09T15:56:07.016Z,51.61
2023-04-09T16:01:07.014Z,51.81
2023-04-09T16:06:06.896Z,51.20
2023-04-09T16:11:06.846Z,50.80
2023-04-09T16:16:06.999Z,50.90
2023-04-09T16:21:06.695Z,50.59
2023-04-09T16:26:06.628Z,50.29
2023-04-09T16:31:06.573Z,49.70
2023-04-09T16:36:06.530Z,50.31
2023-04-09T16:41:06.448Z,50.31
2023-04-09T16:46:06.401Z,50.72
2023-04-09T16:51:06.286Z,50.92
2023-04-09T16:56:06.225Z,51.33
2023-04-09T17:01:06.156Z,51.94
2023-04-09T17:06:06.105Z,52.14
2023-04-09T17:11:06.021Z,52.58
2023-04-09T17:16:06.318Z,52.17
2023-04-09T17:21:05.887Z,52.47
2023-04-09T17:26:05.832Z,53.19
2023-04-09T17:31:05.790Z,53.93
2023-04-09T17:36:05.749Z,54.43
2023-04-09T17:41:07.374Z,55.24
2023-04-09T17:46:05.651Z,56.09
2023-04-09T17:51:05.510Z,56.80
2023-04-09T17:56:05.448Z,58.22
2023-04-09T18:01:05.471Z,59.58
2023-04-09T18:06:05.306Z,59.98
2023-04-09T18:11:12.894Z,60.62
2023-04-09T18:16:05.198Z,60.83
2023-04-09T18:21:05.097Z,61.57
2023-04-09T18:26:05.066Z,62.18
2023-04-09T18:31:04.992Z,62.92
2023-04-09T18:36:04.956Z,63.87
2023-04-09T18:41:04.833Z,65.23
2023-04-09T18:46:04.818Z,67.40
2023-04-09T18:51:04.692Z,68.66
2023-04-09T18:56:04.639Z,68.79
2023-04-09T19:01:04.555Z,70.06
2023-04-09T19:06:04.498Z,70.97
2023-04-09T19:11:04.425Z,71.42
2023-04-09T19:16:04.431Z,72.88
2023-04-09T19:21:04.292Z,73.95
2023-04-09T19:26:04.246Z,74.90
2023-04-09T19:31:04.188Z,75.75
2023-04-09T19:36:04.149Z,74.56
2023-04-09T19:41:04.027Z,75.38
2023-04-09T19:46:03.979Z,76.20
2023-04-09T19:51:03.939Z,75.83
2023-04-09T19:56:03.941Z,76.27
2023-04-09T20:01:03.996Z,77.19
2023-04-09T20:06:03.945Z,77.64
2023-04-09T20:11:03.626Z,77.44
2023-04-09T20:16:03.604Z,77.54
2023-04-09T20:21:03.493Z,76.41
2023-04-09T20:26:03.428Z,76.06
2023-04-09T20:31:03.359Z,77.03
2023-04-09T20:36:03.345Z,76.51
2023-04-09T20:41:03.237Z,75.55
2023-04-09T20:46:03.222Z,76.31
2023-04-09T20:51:03.098Z,77.37
2023-04-09T20:56:03.055Z,78.33
2023-04-09T21:01:02.962Z,78.68
2023-04-09T21:06:02.936Z,79.33
2023-04-09T21:11:02.819Z,80.05
2023-04-09T21:16:02.775Z,80.15
2023-04-09T21:21:02.694Z,80.60
2023-04-09T21:26:02.645Z,81.12
2023-04-09T21:31:02.624Z,81.67
2023-04-09T21:36:02.532Z,81.98
2023-04-09T21:41:02.451Z,80.54
2023-04-09T21:46:02.435Z,79.47
2023-04-09T21:51:02.304Z,79.47
2023-04-09T21:56:04.672Z,79.57
2023-04-09T22:01:02.255Z,80.12
2023-04-09T22:06:02.147Z,80.54
2023-04-09T22:11:02.036Z,80.88
2023-04-09T22:16:02.046Z,80.88
2023-04-09T22:21:01.909Z,81.12
2023-04-09T22:26:01.870Z,81.23
2023-04-09T22:31:01.818Z,81.57
2023-04-09T22:36:01.775Z,81.92
2023-04-09T22:41:01.631Z,82.23
2023-04-09T22:46:01.647Z,82.44
2023-04-09T22:51:01.500Z,82.64
2023-04-09T22:56:01.461Z,82.58
2023-04-09T23:01:01.365Z,82.37
2023-04-09T23:06:01.314Z,83.55
2023-04-09T23:11:01.236Z,85.14
2023-04-09T23:16:01.221Z,85.34
2023-04-09T23:21:01.114Z,85.34
2023-04-09T23:26:01.037Z,85.24
2023-04-09T23:31:01.016Z,84.83
2023-04-09T23:36:01.183Z,84.62
2023-04-09T23:41:00.843Z,84.72
2023-04-09T23:46:00.769Z,84.76
2023-04-09T23:51:00.699Z,85.07
2023-04-09T23:56:00.697Z,85.32
